createdAt,value
2023-02-01T00:02:23.146Z,100396.56
2023-02-01T00:04:50.699Z,100385.47
2023-02-01T00:07:18.323Z,100386.31
2023-02-01T00:09:45.875Z,100379.38
2023-02-01T00:12:13.449Z,100372.19
2023-02-01T00:14:41.122Z,100373.84
2023-02-01T00:17:10.317Z,100359.03
2023-02-01T00:19:37.958Z,100364.19
2023-02-01T00:22:05.496Z,100365.38
2023-02-01T00:24:33.066Z,100350.81
2023-02-01T00:27:00.596Z,100356.75
2023-02-01T00:29:28.263Z,100354.41
2023-02-01T00:31:55.956Z,100355.63
2023-02-01T00:34:25.506Z,100344.38
2023-02-01T00:36:53.076Z,100341.50
2023-02-01T00:39:20.614Z,100320.38
2023-02-01T00:41:48.175Z,100326.06
2023-02-01T00:44:15.872Z,100337.91
2023-02-01T00:46:43.447Z,100349.25
2023-02-01T00:49:11.142Z,100352.09
2023-02-01T00:51:40.065Z,100352.50
2023-02-01T00:54:07.593Z,100356.75
2023-02-01T00:56:35.148Z,100350.09
2023-02-01T00:59:02.709Z,100334.09
2023-02-01T01:01:30.366Z,100340.25
2023-02-01T01:03:59.789Z,100342.16
2023-02-01T01:06:29.398Z,100356.53
2023-02-01T01:09:00.181Z,100355.94
2023-02-01T01:11:30.278Z,100354.84
2023-02-01T01:13:59.381Z,100352.44
2023-02-01T01:16:29.234Z,100349.38
2023-02-01T01:18:57.696Z,100345.50
2023-02-01T01:21:25.757Z,100352.19
2023-02-01T01:24:19.849Z,100338.84
2023-02-01T01:26:47.607Z,100345.84
2023-02-01T01:29:15.181Z,100342.13
2023-02-01T01:31:42.831Z,100339.16
2023-02-01T01:34:10.659Z,100328.91
2023-02-01T01:36:38.311Z,100333.22
2023-02-01T01:39:05.856Z,100335.97
2023-02-01T01:41:34.745Z,100324.00
2023-02-01T01:44:04.231Z,100314.44
2023-02-01T01:46:34.149Z,100327.09
2023-02-01T01:49:09.010Z,100333.59
2023-02-01T01:51:42.191Z,100327.34
2023-02-01T01:54:17.321Z,100334.16
2023-02-01T01:56:52.436Z,100330.91
2023-02-01T01:59:20.326Z,100331.66
2023-02-01T02:01:48.589Z,100323.78
2023-02-01T02:04:16.266Z,100330.19
2023-02-01T02:06:50.500Z,100322.94
2023-02-01T02:09:18.397Z,100328.34
2023-02-01T02:11:47.348Z,100321.41
2023-02-01T02:14:20.406Z,100305.66
2023-02-01T02:17:03.626Z,100301.22
2023-02-01T02:20:00.959Z,100301.34
2023-02-01T02:22:52.090Z,100304.31
2023-02-01T02:25:54.509Z,100299.28
2023-02-01T02:28:52.278Z,100301.69
2023-02-01T02:31:40.152Z,100307.06
2023-02-01T02:34:20.080Z,100304.19
2023-02-01T02:36:57.863Z,100289.09
2023-02-01T02:39:38.452Z,100284.25
2023-02-01T02:42:31.360Z,100268.44
2023-02-01T02:45:21.979Z,100250.91
2023-02-01T02:47:57.106Z,100252.72
2023-02-01T02:50:48.909Z,100245.38
2023-02-01T02:53:38.028Z,100239.69
2023-02-01T02:56:26.202Z,100248.72
2023-02-01T02:59:12.202Z,100260.16
2023-02-01T03:01:59.714Z,100256.56
2023-02-01T03:04:27.394Z,100254.69
2023-02-01T03:06:56.741Z,100251.13
2023-02-01T03:09:31.564Z,100259.72
2023-02-01T03:12:21.584Z,100258.38
2023-02-01T03:14:54.528Z,100243.81
2023-02-01T03:17:29.025Z,100255.38
2023-02-01T03:20:00.729Z,100247.28
2023-02-01T03:22:32.571Z,100244.53
2023-02-01T03:25:04.595Z,100250.63
2023-02-01T03:27:36.133Z,100237.34
2023-02-01T03:30:10.587Z,100226.47
2023-02-01T03:32:54.198Z,100212.31
2023-02-01T03:35:35.651Z,100222.81
2023-02-01T03:38:14.117Z,100229.59
2023-02-01T03:40:45.732Z,100240.28
2023-02-01T03:43:19.278Z,100255.63
2023-02-01T03:45:52.011Z,100257.41
2023-02-01T03:48:21.571Z,100267.41
2023-02-01T03:50:55.129Z,100255.50
2023-02-01T03:53:27.568Z,100267.41
2023-02-01T03:55:56.462Z,100268.16
2023-02-01T03:58:24.847Z,100263.31
2023-02-01T04:00:54.262Z,100267.22
2023-02-01T04:03:23.723Z,100260.56
2023-02-01T04:05:51.790Z,100257.22
2023-02-01T04:08:20.085Z,100248.38
2023-02-01T04:10:49.300Z,100245.09
2023-02-01T04:13:16.871Z,100221.63
2023-02-01T04:15:44.398Z,100240.34
2023-02-01T04:18:12.052Z,100239.13
2023-02-01T04:20:39.600Z,100250.88
2023-02-01T04:23:07.185Z,100253.63
2023-02-01T04:25:34.726Z,100259.59
2023-02-01T04:28:03.623Z,100263.19
2023-02-01T04:30:31.325Z,100274.53
2023-02-01T04:32:58.851Z,100269.84
2023-02-01T04:35:26.433Z,100278.97
2023-02-01T04:37:54.181Z,100273.81
2023-02-01T04:40:22.121Z,100263.63
2023-02-01T04:42:49.925Z,100252.91
2023-02-01T04:45:19.446Z,100254.03
2023-02-01T04:47:47.012Z,100248.59
2023-02-01T04:50:14.627Z,100241.72
2023-02-01T04:52:42.416Z,100244.91
2023-02-01T04:55:10.816Z,100247.13
2023-02-01T04:57:39.689Z,100248.75
2023-02-01T05:00:08.895Z,100252.91
2023-02-01T05:02:38.656Z,100254.34
2023-02-01T05:05:07.132Z,100270.47
2023-02-01T05:07:34.740Z,100277.47
2023-02-01T05:10:02.438Z,100261.47
2023-02-01T05:12:47.807Z,100282.63
2023-02-01T05:15:15.848Z,100277.81
2023-02-01T05:17:44.729Z,100286.31
2023-02-01T05:20:13.155Z,100286.03
2023-02-01T05:22:40.675Z,100280.72
2023-02-01T05:25:08.914Z,100277.38
2023-02-01T05:27:36.630Z,100283.69
2023-02-01T05:30:04.882Z,100277.50
2023-02-01T05:32:32.662Z,100276.31
2023-02-01T05:35:01.683Z,100279.44
2023-02-01T05:37:29.942Z,100275.13
2023-02-01T05:39:57.490Z,100271.72
2023-02-01T05:42:25.118Z,100275.47
2023-02-01T05:44:52.654Z,100271.56
2023-02-01T05:47:21.685Z,100272.25
2023-02-01T05:49:49.265Z,100271.41
2023-02-01T05:52:20.200Z,100268.16
2023-02-01T05:54:48.170Z,100256.41
2023-02-01T05:57:16.444Z,100243.72
2023-02-01T05:59:45.465Z,100260.31
2023-02-01T06:02:13.149Z,100252.06
2023-02-01T06:04:40.810Z,100256.03
2023-02-01T06:07:09.986Z,100242.91
2023-02-01T06:09:39.181Z,100229.75
2023-02-01T06:12:07.616Z,100247.69
2023-02-01T06:14:35.212Z,100263.13
2023-02-01T06:17:03.891Z,100268.94
2023-02-01T06:19:31.446Z,100266.31
2023-02-01T06:21:59.065Z,100272.88
2023-02-01T06:24:26.831Z,100278.25
2023-02-01T06:26:55.892Z,100278.00
2023-02-01T06:29:23.531Z,100280.63
2023-02-01T06:31:51.716Z,100284.31
2023-02-01T06:34:22.088Z,100268.09
2023-02-01T06:36:49.808Z,100268.97
2023-02-01T06:39:17.582Z,100266.34
2023-02-01T06:41:47.553Z,100266.75
2023-02-01T06:44:16.586Z,100268.22
2023-02-01T06:46:44.538Z,100261.56
2023-02-01T06:49:12.367Z,100277.31
2023-02-01T06:51:39.970Z,100275.03
2023-02-01T06:54:07.487Z,100279.72
2023-02-01T06:56:35.098Z,100282.34
2023-02-01T06:59:05.556Z,100287.97
2023-02-01T07:01:35.049Z,100288.78
2023-02-01T07:04:02.647Z,100290.00
2023-02-01T07:06:30.373Z,100291.91
2023-02-01T07:08:59.262Z,100296.81
2023-02-01T07:11:28.392Z,100294.09
2023-02-01T07:13:56.104Z,100298.88
2023-02-01T07:16:24.483Z,100282.13
2023-02-01T07:18:54.331Z,100286.09
2023-02-01T07:21:22.100Z,100280.78
2023-02-01T07:23:49.730Z,100287.44
2023-02-01T07:26:17.885Z,100268.22
2023-02-01T07:28:45.556Z,100259.13
2023-02-01T07:32:28.636Z,100251.00
2023-02-01T07:34:57.629Z,100259.13
2023-02-01T07:37:25.658Z,100260.91
2023-02-01T07:39:53.555Z,100264.63
2023-02-01T07:42:21.148Z,100266.75
2023-02-01T07:44:48.774Z,100269.25
2023-02-01T07:47:16.490Z,100268.44
2023-02-01T07:49:44.044Z,100244.91
2023-02-01T07:52:14.141Z,100253.38
2023-02-01T07:54:41.731Z,100269.97
2023-02-01T07:57:09.929Z,100274.72
2023-02-01T07:59:57.623Z,100285.09
2023-02-01T08:02:24.284Z,100282.22
2023-02-01T08:04:51.913Z,100283.63
2023-02-01T08:07:20.834Z,100293.19
2023-02-01T08:09:48.399Z,100301.75
2023-02-01T08:12:15.951Z,100299.13
2023-02-01T08:14:43.509Z,100301.53
2023-02-01T08:17:11.063Z,100306.38
2023-02-01T08:19:38.660Z,100303.97
2023-02-01T08:22:07.729Z,100313.03
2023-02-01T08:24:36.686Z,100307.38
2023-02-01T08:27:04.521Z,100294.47
2023-02-01T08:29:32.162Z,100301.06
2023-02-01T08:31:59.757Z,100312.41
2023-02-01T08:34:27.365Z,100320.03
2023-02-01T08:36:59.396Z,100326.59
2023-02-01T08:39:27.724Z,100314.03
2023-02-01T08:42:14.333Z,100311.97
2023-02-01T08:44:41.898Z,100303.56
2023-02-01T08:47:09.515Z,100295.41
2023-02-01T08:49:37.127Z,100306.09
2023-02-01T08:52:10.712Z,100315.81
2023-02-01T08:54:43.146Z,100310.44
2023-02-01T08:57:12.040Z,100314.22
2023-02-01T08:59:39.640Z,100306.88
2023-02-01T09:02:07.694Z,100315.59
2023-02-01T09:04:35.251Z,100319.91
2023-02-01T09:07:02.852Z,100309.38
2023-02-01T09:09:30.529Z,100309.16
2023-02-01T09:11:58.168Z,100312.06
2023-02-01T09:14:27.136Z,100310.66
2023-02-01T09:16:54.790Z,100312.06
2023-02-01T09:19:26.379Z,100315.81
2023-02-01T09:21:54.543Z,100325.41
2023-02-01T09:24:22.347Z,100332.84
2023-02-01T09:26:50.266Z,100342.66
2023-02-01T09:29:17.947Z,100335.47
2023-02-01T09:31:57.680Z,100340.53
2023-02-01T09:34:30.619Z,100348.09
2023-02-01T09:36:58.239Z,100352.63
2023-02-01T09:39:26.053Z,100354.13
2023-02-01T09:42:01.722Z,100359.41
2023-02-01T09:44:45.173Z,100365.41
2023-02-01T09:47:16.711Z,100378.09
2023-02-01T09:49:53.644Z,100392.94
2023-02-01T09:52:28.577Z,100398.75
2023-02-01T09:55:01.837Z,100398.72
2023-02-01T09:57:43.122Z,100398.75
2023-02-01T10:00:20.657Z,100390.56
2023-02-01T10:02:50.156Z,100399.94
2023-02-01T10:05:26.680Z,100402.84
2023-02-01T10:08:03.060Z,100405.06
2023-02-01T10:10:34.316Z,100407.59
2023-02-01T10:13:24.695Z,100412.97
2023-02-01T10:16:05.231Z,100413.69
2023-02-01T10:18:53.861Z,100421.47
2023-02-01T10:21:39.927Z,100417.41
2023-02-01T10:24:26.583Z,100422.63
2023-02-01T10:27:01.625Z,100429.53
2023-02-01T10:29:36.825Z,100436.78
2023-02-01T10:32:05.109Z,100424.38
2023-02-01T10:34:36.823Z,100420.03
2023-02-01T10:37:20.361Z,100425.09
2023-02-01T10:39:49.845Z,100425.34
2023-02-01T10:42:20.766Z,100417.50
2023-02-01T10:44:49.176Z,100409.16
2023-02-01T10:47:17.477Z,100419.41
2023-02-01T10:49:54.421Z,100412.69
2023-02-01T10:52:27.302Z,100408.44
2023-02-01T10:54:55.317Z,100401.69
2023-02-01T10:57:26.528Z,100401.50
2023-02-01T10:59:54.540Z,100385.91
2023-02-01T11:02:28.840Z,100380.91
2023-02-01T11:05:11.076Z,100364.47
2023-02-01T11:07:39.295Z,100377.72
2023-02-01T11:10:07.975Z,100356.88
2023-02-01T11:12:38.076Z,100355.81
2023-02-01T11:15:19.818Z,100354.13
2023-02-01T11:17:49.664Z,100353.69
2023-02-01T11:20:21.436Z,100355.38
2023-02-01T11:22:50.198Z,100354.66
2023-02-01T11:25:19.942Z,100348.44
2023-02-01T11:27:54.796Z,100345.44
2023-02-01T11:30:33.629Z,100364.53
2023-02-01T11:33:02.130Z,100345.63
2023-02-01T11:35:31.917Z,100351.50
2023-02-01T11:39:12.913Z,100347.16
2023-02-01T11:41:44.930Z,100357.41
2023-02-01T11:44:24.023Z,100352.06
2023-02-01T11:46:51.809Z,100350.22
2023-02-01T11:49:25.212Z,100352.03
2023-02-01T11:52:10.365Z,100349.81
2023-02-01T11:54:51.941Z,100332.09
2023-02-01T11:57:43.157Z,100349.56
2023-02-01T12:00:34.019Z,100340.47
2023-02-01T12:03:20.478Z,100340.28
2023-02-01T12:05:57.332Z,100351.53
2023-02-01T12:08:42.293Z,100353.16
2023-02-01T12:11:31.481Z,100359.88
2023-02-01T12:14:10.731Z,100356.50
2023-02-01T12:16:49.311Z,100352.19
2023-02-01T12:19:31.050Z,100352.63
2023-02-01T12:22:24.810Z,100347.53
2023-02-01T12:25:12.289Z,100348.31
2023-02-01T12:27:56.099Z,100344.91
2023-02-01T12:31:00.602Z,100344.25
2023-02-01T12:33:35.554Z,100339.78
2023-02-01T12:36:14.746Z,100333.84
2023-02-01T12:38:51.703Z,100327.72
2023-02-01T12:41:50.579Z,100321.03
2023-02-01T12:44:32.939Z,100321.44
2023-02-01T12:47:06.555Z,100325.97
2023-02-01T12:49:46.115Z,100321.56
2023-02-01T12:52:19.807Z,100316.59
2023-02-01T12:54:52.855Z,100307.97
2023-02-01T12:57:29.329Z,100309.34
2023-02-01T13:00:02.969Z,100312.06
2023-02-01T13:02:39.828Z,100292.38
2023-02-01T13:05:19.433Z,100280.41
2023-02-01T13:07:52.541Z,100276.28
2023-02-01T13:10:26.247Z,100271.75
2023-02-01T13:13:01.460Z,100272.56
2023-02-01T13:15:32.464Z,100285.03
2023-02-01T13:18:05.186Z,100259.97
2023-02-01T13:20:36.073Z,100253.13
2023-02-01T13:23:07.826Z,100250.91
2023-02-01T13:25:41.864Z,100243.00
2023-02-01T13:28:16.869Z,100241.47
2023-02-01T13:31:01.658Z,100241.22
2023-02-01T13:33:52.608Z,100244.69
2023-02-01T13:36:51.651Z,100243.06
2023-02-01T13:39:47.865Z,100247.34
2023-02-01T13:42:19.169Z,100244.84
2023-02-01T13:44:51.932Z,100225.03
2023-02-01T13:47:27.667Z,100221.28
2023-02-01T13:49:57.656Z,100221.00
2023-02-01T13:52:39.996Z,100230.53
2023-02-01T13:55:28.079Z,100243.59
2023-02-01T13:58:05.107Z,100234.47
2023-02-01T14:00:37.287Z,100242.63
2023-02-01T14:03:16.921Z,100247.34
2023-02-01T14:06:24.732Z,100231.69
2023-02-01T14:09:18.959Z,100241.53
2023-02-01T14:11:50.148Z,100237.63
2023-02-01T14:14:45.548Z,100231.13
2023-02-01T14:17:40.210Z,100232.50
2023-02-01T14:20:40.255Z,100214.63
2023-02-01T14:23:15.276Z,100217.53
2023-02-01T14:25:43.579Z,100202.97
2023-02-01T14:28:24.366Z,100224.19
2023-02-01T14:30:55.356Z,100223.34
2023-02-01T14:33:28.000Z,100242.63
2023-02-01T14:36:08.764Z,100235.97
2023-02-01T14:38:39.397Z,100242.31
2023-02-01T14:41:28.021Z,100258.13
2023-02-01T14:44:25.533Z,100254.41
2023-02-01T14:47:21.973Z,100255.53
2023-02-01T14:49:57.433Z,100264.00
2023-02-01T14:52:32.978Z,100272.03
2023-02-01T14:55:07.733Z,100261.34
2023-02-01T14:57:39.507Z,100244.97
2023-02-01T15:00:16.996Z,100233.19
2023-02-01T15:02:45.811Z,100252.03
2023-02-01T15:05:34.899Z,100244.84
2023-02-01T15:08:08.945Z,100238.44
2023-02-01T15:10:45.535Z,100235.41
2023-02-01T15:13:23.947Z,100229.00
2023-02-01T15:16:06.462Z,100228.72
2023-02-01T15:18:34.772Z,100221.66
2023-02-01T15:21:26.334Z,100226.22
2023-02-01T15:24:12.624Z,100227.47
2023-02-01T15:33:58.680Z,100226.19
2023-02-01T15:36:29.647Z,100237.03
2023-02-01T15:39:23.859Z,100220.41
2023-02-01T15:41:53.815Z,100239.19
2023-02-01T15:44:33.523Z,100245.31
2023-02-01T15:47:02.839Z,100236.56
2023-02-01T15:49:33.824Z,100251.41
2023-02-01T15:52:04.140Z,100240.03
2023-02-01T15:54:34.620Z,100246.00
2023-02-01T15:57:04.259Z,100259.84
2023-02-01T15:59:37.807Z,100240.16
2023-02-01T16:02:05.438Z,100239.75
2023-02-01T16:04:33.954Z,100225.47
2023-02-01T16:07:05.681Z,100233.38
2023-02-01T16:09:41.457Z,100237.22
2023-02-01T16:12:30.501Z,100221.19
2023-02-01T16:14:58.184Z,100227.28
2023-02-01T16:17:25.850Z,100232.78
2023-02-01T16:19:53.559Z,100223.22
2023-02-01T16:22:22.482Z,100230.69
2023-02-01T16:24:50.056Z,100224.88
2023-02-01T16:27:17.595Z,100231.41
2023-02-01T16:29:45.239Z,100241.09
2023-02-01T16:32:19.058Z,100260.47
2023-02-01T16:34:47.173Z,100257.41
2023-02-01T16:37:17.632Z,100273.19
2023-02-01T16:39:46.575Z,100275.09
2023-02-01T16:42:15.689Z,100291.31
2023-02-01T16:44:44.077Z,100290.88
2023-02-01T16:47:16.445Z,100286.75
2023-02-01T16:49:44.867Z,100284.66
2023-02-01T16:52:17.738Z,100287.31
2023-02-01T16:54:46.748Z,100288.25
2023-02-01T16:57:15.566Z,100269.97
2023-02-01T16:59:44.907Z,100268.47
2023-02-01T17:02:15.111Z,100252.78
2023-02-01T17:04:43.119Z,100265.25
2023-02-01T17:07:13.907Z,100263.31
2023-02-01T17:09:41.600Z,100245.50
2023-02-01T17:12:23.546Z,100245.75
2023-02-01T17:14:52.294Z,100255.72
2023-02-01T17:17:29.045Z,100260.69
2023-02-01T17:20:06.829Z,100243.81
2023-02-01T17:22:35.017Z,100245.31
2023-02-01T17:25:03.168Z,100249.63
2023-02-01T17:27:32.136Z,100239.66
2023-02-01T17:30:00.781Z,100237.84
2023-02-01T17:32:29.127Z,100241.56
2023-02-01T17:34:58.323Z,100238.56
2023-02-01T17:37:28.285Z,100241.31
2023-02-01T17:39:56.205Z,100243.28
2023-02-01T17:42:24.585Z,100239.94
2023-02-01T17:44:56.969Z,100244.50
2023-02-01T17:47:24.777Z,100224.44
2023-02-01T17:49:56.484Z,100223.34
2023-02-01T17:52:26.107Z,100213.53
2023-02-01T17:54:54.929Z,100226.38
2023-02-01T17:57:22.984Z,100224.03
2023-02-01T17:59:50.582Z,100228.03
2023-02-01T18:02:22.083Z,100236.91
2023-02-01T18:04:51.007Z,100240.47
2023-02-01T18:07:18.702Z,100237.28
2023-02-01T18:09:46.327Z,100243.13
2023-02-01T18:12:20.977Z,100251.84
2023-02-01T18:14:48.839Z,100235.50
2023-02-01T18:17:16.526Z,100247.09
2023-02-01T18:19:45.467Z,100244.91
2023-02-01T18:22:17.585Z,100252.69
2023-02-01T18:24:45.249Z,100254.47
2023-02-01T18:27:12.798Z,100263.31
2023-02-01T18:29:40.465Z,100255.19
2023-02-01T18:32:08.101Z,100263.91
2023-02-01T18:34:35.712Z,100253.44
2023-02-01T18:37:04.702Z,100247.66
2023-02-01T18:39:32.285Z,100250.44
2023-02-01T18:42:00.080Z,100259.41
2023-02-01T18:44:27.791Z,100260.97
2023-02-01T18:46:55.453Z,100258.47
2023-02-01T18:49:23.029Z,100271.63
2023-02-01T18:51:52.059Z,100254.44
2023-02-01T18:54:20.992Z,100276.88
2023-02-01T18:56:48.518Z,100274.13
2023-02-01T18:59:17.345Z,100265.50
2023-02-01T19:01:45.239Z,100268.28
2023-02-01T19:04:16.118Z,100281.41
2023-02-01T19:06:48.314Z,100274.81
2023-02-01T19:09:16.066Z,100272.16
2023-02-01T19:11:45.132Z,100288.38
2023-02-01T19:14:12.810Z,100278.69
2023-02-01T19:16:40.773Z,100287.59
2023-02-01T19:19:08.960Z,100308.63
2023-02-01T19:21:37.376Z,100295.59
2023-02-01T19:24:05.625Z,100310.84
2023-02-01T19:26:33.460Z,100302.97
2023-02-01T19:29:02.827Z,100324.44
2023-02-01T19:31:30.657Z,100313.91
2023-02-01T19:33:58.739Z,100307.28
2023-02-01T19:36:26.809Z,100304.22
2023-02-01T19:38:54.604Z,100306.16
2023-02-01T19:41:22.330Z,100281.50
2023-02-01T19:43:50.078Z,100284.16
2023-02-01T19:46:19.303Z,100268.34
2023-02-01T19:48:47.808Z,100282.03
2023-02-01T19:51:15.499Z,100281.50
2023-02-01T19:53:43.364Z,100281.63
2023-02-01T19:56:11.323Z,100265.72
2023-02-01T19:58:39.064Z,100285.25
2023-02-01T20:01:07.237Z,100250.66
2023-02-01T20:03:36.304Z,100277.22
2023-02-01T20:06:04.404Z,100264.22
2023-02-01T20:08:32.189Z,100283.13
2023-02-01T20:10:59.916Z,100277.75
2023-02-01T20:13:27.687Z,100258.13
2023-02-01T20:15:59.419Z,100266.00
2023-02-01T20:18:28.226Z,100264.88
2023-02-01T20:20:58.722Z,100260.28
2023-02-01T20:23:28.062Z,100264.88
2023-02-01T20:25:57.285Z,100270.13
2023-02-01T20:28:24.891Z,100275.50
2023-02-01T20:30:52.713Z,100272.88
2023-02-01T20:33:20.827Z,100277.59
2023-02-01T20:35:49.285Z,100282.44
2023-02-01T20:38:18.296Z,100279.81
2023-02-01T20:40:45.906Z,100282.31
2023-02-01T20:43:14.047Z,100291.16
2023-02-01T20:45:42.090Z,100299.19
2023-02-01T20:48:11.608Z,100293.09
2023-02-01T20:50:39.590Z,100297.13
2023-02-01T20:53:07.199Z,100303.50
2023-02-01T20:55:36.110Z,100306.69
2023-02-01T20:58:04.008Z,100317.31
2023-02-01T21:00:32.168Z,100320.25
2023-02-01T21:02:59.895Z,100314.03
2023-02-01T21:05:39.821Z,100315.31
2023-02-01T21:08:09.029Z,100320.75
2023-02-01T21:10:38.627Z,100320.63
2023-02-01T21:13:06.864Z,100312.75
2023-02-01T21:15:36.556Z,100310.78
2023-02-01T21:18:05.609Z,100300.41
2023-02-01T21:20:33.282Z,100312.75
2023-02-01T21:23:00.905Z,100309.28
2023-02-01T21:25:29.024Z,100317.28
2023-02-01T21:27:57.961Z,100325.91
2023-02-01T21:30:25.656Z,100315.94
2023-02-01T21:32:53.218Z,100311.38
2023-02-01T21:35:20.834Z,100315.09
2023-02-01T21:37:48.394Z,100321.63
2023-02-01T21:40:16.296Z,100324.13
2023-02-01T21:42:45.744Z,100328.56
2023-02-01T21:45:15.707Z,100323.88
2023-02-01T21:47:44.122Z,100332.88
2023-02-01T21:50:16.137Z,100333.56
2023-02-01T21:52:44.381Z,100344.66
2023-02-01T21:55:12.098Z,100344.53
2023-02-01T21:57:40.194Z,100340.94
2023-02-01T22:00:09.480Z,100352.69
2023-02-01T22:02:38.751Z,100340.22
2023-02-01T22:05:07.521Z,100343.56
2023-02-01T22:07:36.040Z,100349.78
2023-02-01T22:10:04.429Z,100348.84
2023-02-01T22:12:32.230Z,100345.41
2023-02-01T22:14:59.866Z,100352.03
2023-02-01T22:17:27.446Z,100354.66
2023-02-01T22:19:56.389Z,100357.72
2023-02-01T22:22:23.921Z,100356.75
2023-02-01T22:24:51.587Z,100361.34
2023-02-01T22:27:19.332Z,100369.09
2023-02-01T22:29:46.879Z,100368.44
2023-02-01T22:32:14.658Z,100375.25
2023-02-01T22:34:42.580Z,100369.50
2023-02-01T22:37:12.295Z,100366.94
2023-02-01T22:39:40.398Z,100356.06
2023-02-01T22:42:07.929Z,100358.19
2023-02-01T22:44:35.506Z,100374.78
2023-02-01T22:47:03.259Z,100366.50
2023-02-01T22:49:30.806Z,100360.09
2023-02-01T22:51:59.137Z,100365.13
2023-02-01T22:54:28.155Z,100363.44
2023-02-01T22:56:55.696Z,100346.66
2023-02-01T22:59:23.451Z,100373.56
2023-02-01T23:01:51.078Z,100363.44
2023-02-01T23:04:21.227Z,100363.81
2023-02-01T23:06:50.897Z,100351.25
2023-02-01T23:09:20.178Z,100355.56
2023-02-01T23:11:49.455Z,100353.59
2023-02-01T23:14:17.375Z,100349.75
2023-02-01T23:16:46.185Z,100351.09
2023-02-01T23:19:14.290Z,100332.66
2023-02-01T23:21:42.409Z,100330.03
2023-02-01T23:24:11.084Z,100333.25
2023-02-01T23:26:39.192Z,100336.28
2023-02-01T23:29:08.162Z,100333.66
2023-02-01T23:31:36.521Z,100333.50
2023-02-01T23:34:05.792Z,100339.47
2023-02-01T23:36:34.254Z,100349.88
2023-02-01T23:39:01.966Z,100354.56
2023-02-01T23:41:30.066Z,100350.72
2023-02-01T23:43:59.803Z,100348.50
2023-02-01T23:46:31.842Z,100351.78
2023-02-01T23:49:00.661Z,100344.03
2023-02-01T23:51:28.760Z,100352.63
2023-02-01T23:53:57.180Z,100342.38
2023-02-01T23:56:27.030Z,100347.66
2023-02-01T23:58:56.705Z,100338.47
